createdAt,value
2022-12-01T00:01:54.061Z,24.92
2022-12-01T00:04:20.425Z,18.67
2022-12-01T00:06:47.981Z,22.58
2022-12-01T00:09:33.240Z,19.17
2022-12-01T00:11:59.580Z,19.13
2022-12-01T00:14:26.077Z,22.92
2022-12-01T00:16:52.401Z,20.77
2022-12-01T00:19:18.816Z,20.42
2022-12-01T00:21:45.753Z,17.00
2022-12-01T00:24:12.548Z,18.50
2022-12-01T00:26:38.915Z,23.17
2022-12-01T00:29:05.313Z,20.98
2022-12-01T00:31:31.720Z,20.75
2022-12-01T00:33:58.187Z,19.52
2022-12-01T00:36:24.488Z,17.98
2022-12-01T00:38:54.350Z,24.02
2022-12-01T00:41:21.160Z,19.63
2022-12-01T00:43:47.559Z,18.25
2022-12-01T00:46:13.975Z,27.38
2022-12-01T00:48:40.425Z,24.15
2022-12-01T00:51:06.717Z,27.10
2022-12-01T00:53:33.081Z,26.10
2022-12-01T00:55:59.465Z,28.00
2022-12-01T00:58:25.833Z,28.60
2022-12-01T01:00:59.028Z,36.45
2022-12-01T01:03:25.793Z,35.13
2022-12-01T01:05:52.256Z,50.08
2022-12-01T01:08:18.862Z,57.95
2022-12-01T01:10:46.122Z,56.47
2022-12-01T01:13:13.410Z,58.33
2022-12-01T01:15:40.190Z,56.50
2022-12-01T01:18:07.121Z,52.95
2022-12-01T01:20:34.053Z,54.25
2022-12-01T01:23:00.378Z,52.67
2022-12-01T01:25:26.696Z,51.17
2022-12-01T01:27:53.049Z,56.17
2022-12-01T01:30:19.464Z,58.50
2022-12-01T01:32:46.009Z,58.63
2022-12-01T01:35:12.472Z,61.42
2022-12-01T01:37:39.148Z,57.67
2022-12-01T01:40:06.106Z,54.28
2022-12-01T01:42:32.409Z,58.03
2022-12-01T01:44:59.029Z,57.97
2022-12-01T01:47:28.333Z,58.00
2022-12-01T01:49:56.215Z,60.03
2022-12-01T01:52:23.323Z,55.85
2022-12-01T01:54:50.891Z,62.88
2022-12-01T01:57:20.669Z,59.17
2022-12-01T01:59:49.942Z,55.28
2022-12-01T02:02:16.486Z,53.08
2022-12-01T02:04:47.013Z,58.15
2022-12-01T02:07:15.125Z,57.47
2022-12-01T02:09:41.652Z,57.28
2022-12-01T02:12:11.285Z,59.15
2022-12-01T02:14:54.784Z,60.53
2022-12-01T02:17:41.588Z,61.65
2022-12-01T02:20:26.384Z,59.83
2022-12-01T02:22:54.048Z,64.80
2022-12-01T02:25:35.300Z,55.90
2022-12-01T02:28:16.712Z,59.90
2022-12-01T02:30:43.035Z,54.35
2022-12-01T02:33:21.169Z,61.08
2022-12-01T02:35:55.949Z,61.47
2022-12-01T02:38:42.517Z,59.97
2022-12-01T02:41:10.944Z,54.78
2022-12-01T02:43:54.640Z,62.90
2022-12-01T02:46:27.402Z,63.63
2022-12-01T02:48:55.916Z,66.63
2022-12-01T02:51:29.075Z,66.47
2022-12-01T02:53:55.912Z,55.33
2022-12-01T02:56:23.624Z,60.55
2022-12-01T02:58:50.424Z,56.08
2022-12-01T03:01:19.800Z,65.85
2022-12-01T03:03:55.262Z,70.07
2022-12-01T03:06:36.133Z,61.35
2022-12-01T03:09:02.592Z,64.95
2022-12-01T03:11:36.328Z,60.47
2022-12-01T03:14:12.428Z,63.28
2022-12-01T03:16:48.141Z,65.47
2022-12-01T03:19:16.510Z,65.78
2022-12-01T03:21:46.510Z,66.70
2022-12-01T03:24:21.162Z,66.32
2022-12-01T03:26:49.585Z,60.63
2022-12-01T03:29:18.261Z,64.13
2022-12-01T03:31:47.766Z,70.40
2022-12-01T03:34:16.703Z,63.85
2022-12-01T03:36:45.572Z,76.55
2022-12-01T03:39:15.017Z,76.35
2022-12-01T03:41:43.645Z,70.60
2022-12-01T03:44:13.977Z,71.90
2022-12-01T03:46:47.719Z,66.20
2022-12-01T03:49:14.953Z,67.60
2022-12-01T03:51:43.325Z,71.57
2022-12-01T03:54:18.732Z,71.40
2022-12-01T03:56:53.934Z,69.40
2022-12-01T03:59:21.487Z,75.57
2022-12-01T04:01:48.038Z,71.78
2022-12-01T04:04:14.833Z,64.78
2022-12-01T04:06:43.334Z,67.53
2022-12-01T04:09:09.930Z,76.07
2022-12-01T04:11:54.818Z,69.65
2022-12-01T04:14:21.191Z,71.60
2022-12-01T04:16:47.884Z,71.10
2022-12-01T04:19:14.605Z,72.22
2022-12-01T04:21:40.988Z,69.18
2022-12-01T04:24:07.490Z,74.50
2022-12-01T04:26:35.301Z,69.90
2022-12-01T04:29:02.937Z,71.07
2022-12-01T04:31:29.404Z,73.80
2022-12-01T04:33:56.364Z,76.15
2022-12-01T04:36:23.145Z,69.03
2022-12-01T04:38:49.491Z,66.35
2022-12-01T04:41:16.018Z,73.38
2022-12-01T04:43:42.584Z,69.95
2022-12-01T04:46:09.356Z,63.38
2022-12-01T04:48:36.364Z,74.90
2022-12-01T04:51:03.240Z,82.60
2022-12-01T04:53:29.550Z,78.30
2022-12-01T04:55:56.185Z,69.63
2022-12-01T04:58:22.536Z,71.43
2022-12-01T05:00:48.878Z,71.38
2022-12-01T05:03:15.452Z,74.47
2022-12-01T05:05:41.820Z,65.03
2022-12-01T05:08:08.378Z,71.45
2022-12-01T05:10:36.306Z,74.80
2022-12-01T05:13:03.160Z,74.55
2022-12-01T05:15:29.473Z,75.55
2022-12-01T05:17:55.849Z,70.32
2022-12-01T05:20:42.096Z,76.75
2022-12-01T05:23:13.569Z,74.13
2022-12-01T05:25:42.843Z,73.80
2022-12-01T05:28:09.233Z,72.97
2022-12-01T05:30:35.553Z,71.40
2022-12-01T05:33:01.928Z,72.75
2022-12-01T05:35:28.345Z,76.07
2022-12-01T05:37:55.771Z,71.40
2022-12-01T05:40:22.109Z,87.20
2022-12-01T05:42:48.463Z,75.25
2022-12-01T05:45:14.849Z,74.07
2022-12-01T05:47:41.198Z,83.65
2022-12-01T05:50:08.096Z,88.18
2022-12-01T05:52:35.315Z,84.32
2022-12-01T05:55:02.611Z,86.57
2022-12-01T05:57:28.949Z,91.63
2022-12-01T05:59:55.456Z,83.82
2022-12-01T06:02:21.907Z,80.60
2022-12-01T06:04:48.478Z,81.20
2022-12-01T06:07:14.860Z,72.03
2022-12-01T06:09:41.198Z,71.78
2022-12-01T06:12:07.532Z,71.53
2022-12-01T06:14:34.041Z,69.18
2022-12-01T06:17:00.474Z,84.55
2022-12-01T06:19:26.975Z,74.43
2022-12-01T06:21:53.256Z,70.28
2022-12-01T06:24:19.685Z,70.43
2022-12-01T06:26:46.131Z,58.55
2022-12-01T06:29:12.610Z,61.67
2022-12-01T06:31:38.940Z,59.15
2022-12-01T06:34:05.419Z,61.58
2022-12-01T06:36:31.924Z,78.68
2022-12-01T06:38:59.445Z,66.47
2022-12-01T06:41:26.101Z,71.20
2022-12-01T06:43:52.474Z,71.90
2022-12-01T06:46:18.947Z,67.15
2022-12-01T06:48:47.693Z,55.30
2022-12-01T06:51:14.087Z,55.90
2022-12-01T06:53:40.453Z,67.50
2022-12-01T06:56:06.996Z,48.45
2022-12-01T06:58:34.652Z,46.20
2022-12-01T07:01:07.609Z,36.30
2022-12-01T07:03:34.125Z,45.42
2022-12-01T07:06:02.223Z,47.15
2022-12-01T07:08:29.414Z,48.38
2022-12-01T07:10:59.657Z,40.42
2022-12-01T07:13:31.504Z,49.67
2022-12-01T07:15:59.814Z,45.30
2022-12-01T07:18:26.249Z,47.83
2022-12-01T07:20:52.535Z,48.92
2022-12-01T07:23:18.884Z,43.30
2022-12-01T07:25:45.417Z,45.20
2022-12-01T07:28:11.819Z,40.03
2022-12-01T07:30:38.435Z,48.75
2022-12-01T07:33:04.881Z,48.42
2022-12-01T07:35:31.188Z,54.97
2022-12-01T07:37:57.638Z,53.92
2022-12-01T07:40:24.095Z,48.70
2022-12-01T07:42:50.426Z,60.65
2022-12-01T07:45:16.808Z,62.40
2022-12-01T07:47:44.523Z,67.68
2022-12-01T07:50:11.104Z,75.28
2022-12-01T07:52:37.428Z,78.10
2022-12-01T07:55:03.870Z,67.65
2022-12-01T07:57:30.390Z,68.53
2022-12-01T07:59:56.873Z,73.97
2022-12-01T08:02:23.289Z,74.22
2022-12-01T08:04:49.658Z,82.18
2022-12-01T08:07:15.945Z,78.35
2022-12-01T08:09:44.815Z,75.57
2022-12-01T08:12:11.120Z,83.70
2022-12-01T08:14:37.521Z,74.55
2022-12-01T08:17:03.867Z,80.50
2022-12-01T08:19:30.501Z,78.70
2022-12-01T08:21:56.974Z,80.80
2022-12-01T08:24:23.453Z,74.90
2022-12-01T08:26:49.820Z,80.47
2022-12-01T08:29:20.145Z,89.28
2022-12-01T08:31:46.889Z,76.82
2022-12-01T08:34:13.355Z,84.00
2022-12-01T08:36:39.790Z,80.93
2022-12-01T08:39:07.307Z,81.88
2022-12-01T08:41:33.675Z,69.47
2022-12-01T08:44:01.111Z,74.07
2022-12-01T08:46:29.035Z,80.30
2022-12-01T08:48:57.208Z,76.70
2022-12-01T08:51:23.853Z,75.18
2022-12-01T08:53:50.175Z,77.75
2022-12-01T08:56:18.172Z,81.57
2022-12-01T08:58:44.654Z,69.85
2022-12-01T09:01:12.121Z,77.95
2022-12-01T09:03:39.378Z,75.72
2022-12-01T09:06:07.270Z,75.85
2022-12-01T09:08:35.024Z,82.15
2022-12-01T09:11:02.662Z,75.68
2022-12-01T09:13:29.553Z,78.07
2022-12-01T09:15:57.238Z,74.38
2022-12-01T09:18:23.721Z,72.07
2022-12-01T09:20:50.256Z,72.43
2022-12-01T09:23:16.559Z,72.13
2022-12-01T09:25:43.026Z,72.63
2022-12-01T09:28:09.462Z,73.63
2022-12-01T09:30:36.013Z,79.60
2022-12-01T09:33:02.581Z,70.68
2022-12-01T09:35:30.407Z,77.15
2022-12-01T09:37:57.467Z,76.10
2022-12-01T09:40:26.261Z,79.75
2022-12-01T09:42:52.763Z,77.90
2022-12-01T09:45:24.461Z,77.90
2022-12-01T09:47:50.993Z,85.40
2022-12-01T09:50:23.070Z,78.10
2022-12-01T09:53:02.218Z,76.00
2022-12-01T09:55:28.965Z,87.90
2022-12-01T09:57:56.590Z,98.28
2022-12-01T10:00:28.294Z,84.15
2022-12-01T10:03:20.360Z,71.38
2022-12-01T10:06:10.421Z,78.85
2022-12-01T10:08:35.863Z,80.25
2022-12-01T10:11:12.976Z,76.22
2022-12-01T10:13:39.515Z,83.57
2022-12-01T10:16:09.830Z,82.00
2022-12-01T10:18:51.576Z,87.33
2022-12-01T10:21:23.913Z,74.95
2022-12-01T10:23:57.023Z,76.45
2022-12-01T10:26:31.396Z,74.72
2022-12-01T10:29:00.964Z,80.22
2022-12-01T10:31:45.323Z,74.82
2022-12-01T10:34:17.773Z,76.68
2022-12-01T10:36:44.330Z,79.22
2022-12-01T10:39:19.477Z,80.15
2022-12-01T10:41:47.419Z,77.15
2022-12-01T10:44:14.349Z,77.38
2022-12-01T10:46:44.433Z,72.85
2022-12-01T10:49:11.990Z,75.70
2022-12-01T10:51:52.230Z,79.75
2022-12-01T10:54:18.850Z,72.10
2022-12-01T10:56:47.917Z,69.45
2022-12-01T10:59:23.278Z,74.75
2022-12-01T11:01:50.110Z,76.80
2022-12-01T11:04:42.532Z,74.47
2022-12-01T11:07:14.914Z,71.53
2022-12-01T11:09:41.322Z,76.45
2022-12-01T11:12:13.404Z,70.80
2022-12-01T11:14:42.908Z,63.03
2022-12-01T11:17:16.624Z,68.93
2022-12-01T11:19:43.647Z,72.70
2022-12-01T11:22:23.949Z,65.75
2022-12-01T11:24:53.280Z,64.28
2022-12-01T11:27:21.308Z,63.22
2022-12-01T11:29:49.575Z,65.90
2022-12-01T11:32:19.220Z,60.47
2022-12-01T11:34:54.714Z,60.13
2022-12-01T11:37:22.800Z,63.22
2022-12-01T11:39:50.059Z,60.05
2022-12-01T11:42:20.814Z,55.40
2022-12-01T11:44:51.675Z,64.43
2022-12-01T11:47:24.449Z,60.65
2022-12-01T11:49:53.347Z,65.45
2022-12-01T11:52:28.154Z,58.83
2022-12-01T11:54:58.853Z,57.92
2022-12-01T11:57:34.203Z,58.40
2022-12-01T12:00:01.868Z,59.85
2022-12-01T12:02:47.908Z,66.72
2022-12-01T12:05:35.919Z,65.32
2022-12-01T12:08:28.653Z,55.50
2022-12-01T12:11:03.943Z,58.05
2022-12-01T12:13:48.886Z,57.72
2022-12-01T12:16:15.269Z,52.05
2022-12-01T12:19:00.304Z,53.83
2022-12-01T12:21:34.483Z,52.78
2022-12-01T12:24:13.187Z,52.67
2022-12-01T12:26:47.385Z,48.00
2022-12-01T12:29:32.651Z,55.67
2022-12-01T12:32:08.217Z,50.03
2022-12-01T12:34:34.624Z,56.08
2022-12-01T12:37:07.145Z,53.47
2022-12-01T12:39:49.268Z,52.15
2022-12-01T12:42:29.409Z,54.42
2022-12-01T12:45:01.924Z,51.00
2022-12-01T12:47:47.471Z,50.00
2022-12-01T12:50:22.674Z,49.13
2022-12-01T12:52:51.254Z,46.83
2022-12-01T12:55:17.539Z,47.80
2022-12-01T12:57:51.858Z,50.50
2022-12-01T13:00:23.741Z,54.65
2022-12-01T13:03:06.096Z,52.70
2022-12-01T13:05:47.747Z,51.55
2022-12-01T13:08:17.790Z,55.45
2022-12-01T13:10:58.023Z,50.53
2022-12-01T13:13:24.567Z,46.40
2022-12-01T13:15:52.415Z,47.30
2022-12-01T13:18:25.156Z,43.15
2022-12-01T13:20:52.364Z,46.10
2022-12-01T13:23:20.291Z,48.42
2022-12-01T13:25:49.083Z,51.88
2022-12-01T13:28:20.267Z,52.40
2022-12-01T13:33:15.530Z,49.42
2022-12-01T13:35:42.227Z,51.95
2022-12-01T13:38:30.223Z,48.47
2022-12-01T13:41:14.663Z,44.97
2022-12-01T13:43:59.263Z,41.50
2022-12-01T13:46:27.615Z,44.50
2022-12-01T13:48:56.653Z,43.03
2022-12-01T13:51:23.638Z,46.55
2022-12-01T13:53:53.011Z,43.05
2022-12-01T13:56:43.852Z,39.25
2022-12-01T13:59:30.763Z,40.70
2022-12-01T14:02:15.328Z,43.60
2022-12-01T14:04:42.121Z,41.83
2022-12-01T14:07:16.793Z,49.45
2022-12-01T14:09:44.011Z,44.30
2022-12-01T14:12:19.469Z,49.65
2022-12-01T14:14:58.164Z,44.28
2022-12-01T14:17:32.091Z,42.92
2022-12-01T14:20:08.083Z,43.72
2022-12-01T14:22:43.943Z,43.55
2022-12-01T14:25:19.685Z,44.40
2022-12-01T14:27:46.926Z,54.75
2022-12-01T14:30:32.942Z,36.75
2022-12-01T14:33:18.537Z,38.63
2022-12-01T14:35:44.928Z,35.72
2022-12-01T14:38:11.597Z,42.50
2022-12-01T14:40:38.234Z,39.35
2022-12-01T14:43:23.382Z,42.90
2022-12-01T14:46:01.459Z,39.22
2022-12-01T14:48:44.949Z,37.25
2022-12-01T14:51:34.667Z,39.20
2022-12-01T14:54:02.423Z,44.70
2022-12-01T14:56:30.277Z,44.10
2022-12-01T14:58:58.347Z,42.55
2022-12-01T15:01:29.841Z,42.67
2022-12-01T15:04:01.649Z,48.30
2022-12-01T15:06:28.927Z,36.58
2022-12-01T15:12:01.913Z,75.40
2022-12-01T15:14:31.589Z,78.43
2022-12-01T15:16:58.596Z,57.70
2022-12-01T15:19:32.646Z,48.63
2022-12-01T15:22:02.545Z,65.72
2022-12-01T15:24:31.001Z,43.35
2022-12-01T15:27:03.493Z,42.08
2022-12-01T15:29:32.352Z,46.92
2022-12-01T15:32:00.535Z,48.97
2022-12-01T15:34:31.885Z,45.58
2022-12-01T15:39:33.748Z,40.67
2022-12-01T15:42:01.748Z,48.20
2022-12-01T15:44:29.499Z,43.42
2022-12-01T15:46:55.891Z,41.08
2022-12-01T15:49:32.816Z,43.40
2022-12-01T15:52:07.238Z,46.17
2022-12-01T15:54:33.958Z,47.00
2022-12-01T15:57:03.550Z,39.13
2022-12-01T15:59:29.924Z,45.97
2022-12-01T16:01:56.845Z,44.97
2022-12-01T16:04:25.241Z,41.72
2022-12-01T16:07:11.825Z,43.42
2022-12-01T16:09:42.907Z,39.63
2022-12-01T16:12:09.298Z,47.65
2022-12-01T16:14:36.219Z,41.58
2022-12-01T16:17:03.688Z,44.90
2022-12-01T16:19:30.889Z,38.70
2022-12-01T16:22:13.777Z,36.67
2022-12-01T16:24:46.572Z,38.58
2022-12-01T16:27:15.928Z,41.35
2022-12-01T16:30:03.650Z,39.60
2022-12-01T16:32:30.102Z,40.00
2022-12-01T16:34:56.498Z,37.17
2022-12-01T16:37:23.337Z,36.33
2022-12-01T16:39:50.067Z,36.15
2022-12-01T16:42:18.331Z,34.28
2022-12-01T16:44:46.326Z,38.65
2022-12-01T16:47:14.571Z,38.60
2022-12-01T16:49:41.519Z,35.13
2022-12-01T16:52:36.558Z,31.67
2022-12-01T16:54:54.498Z,29.70
2022-12-01T16:57:20.980Z,37.63
2022-12-01T16:59:47.696Z,30.70
2022-12-01T17:02:14.172Z,34.05
2022-12-01T17:04:40.563Z,31.75
2022-12-01T17:07:06.898Z,21.25
2022-12-01T17:09:34.341Z,23.05
2022-12-01T17:12:00.865Z,25.80
2022-12-01T17:14:27.265Z,22.13
2022-12-01T17:16:53.604Z,23.00
2022-12-01T17:19:20.094Z,27.30
2022-12-01T17:21:46.441Z,28.83
2022-12-01T17:24:17.584Z,24.92
2022-12-01T17:26:45.316Z,29.15
2022-12-01T17:29:11.727Z,27.45
2022-12-01T17:31:38.126Z,30.98
2022-12-01T17:34:04.503Z,31.85
2022-12-01T17:36:30.999Z,33.35
2022-12-01T17:38:58.577Z,30.98
2022-12-01T17:41:26.777Z,30.15
2022-12-01T17:43:53.365Z,29.23
2022-12-01T17:46:19.889Z,31.10
2022-12-01T17:48:46.784Z,39.45
2022-12-01T17:51:14.284Z,38.20
2022-12-01T17:53:40.965Z,37.28
2022-12-01T17:56:10.803Z,33.60
2022-12-01T17:58:38.818Z,33.88
2022-12-01T18:01:05.749Z,33.05
2022-12-01T18:03:32.309Z,24.92
2022-12-01T18:06:01.286Z,32.60
2022-12-01T18:08:29.428Z,47.70
2022-12-01T18:10:56.324Z,62.80
2022-12-01T18:13:22.805Z,62.33
2022-12-01T18:15:50.836Z,63.30
2022-12-01T18:18:17.265Z,45.33
2022-12-01T18:20:44.360Z,41.50
2022-12-01T18:23:11.680Z,37.45
2022-12-01T18:25:38.798Z,32.33
2022-12-01T18:28:06.280Z,25.33
2022-12-01T18:30:33.400Z,24.08
2022-12-01T18:33:03.008Z,19.40
2022-12-01T18:35:31.895Z,18.75
2022-12-01T18:37:58.681Z,20.02
2022-12-01T18:40:25.895Z,23.35
2022-12-01T18:42:52.369Z,22.02
2022-12-01T18:45:21.419Z,19.23
2022-12-01T18:47:47.974Z,19.58
2022-12-01T18:50:15.579Z,15.13
2022-12-01T18:52:41.954Z,16.73
2022-12-01T18:55:08.837Z,16.08
2022-12-01T18:57:35.756Z,16.60
2022-12-01T19:00:04.517Z,19.55
2022-12-01T19:02:30.951Z,17.90
2022-12-01T19:04:57.374Z,21.33
2022-12-01T19:07:28.150Z,17.48
2022-12-01T19:09:56.298Z,19.55
2022-12-01T19:12:25.013Z,19.73
2022-12-01T19:14:52.997Z,19.30
2022-12-01T19:17:19.721Z,18.85
2022-12-01T19:19:47.211Z,21.98
2022-12-01T19:22:15.085Z,17.63
2022-12-01T19:24:50.044Z,18.35
2022-12-01T19:27:17.595Z,19.08
2022-12-01T19:29:44.145Z,19.80
2022-12-01T19:32:10.890Z,17.77
2022-12-01T19:34:37.498Z,20.23
2022-12-01T19:37:03.892Z,19.92
2022-12-01T19:39:31.475Z,21.60
2022-12-01T19:41:58.044Z,18.38
2022-12-01T19:44:24.641Z,20.20
2022-12-01T19:46:51.094Z,23.10
2022-12-01T19:49:17.492Z,22.33
2022-12-01T19:51:44.042Z,26.33
2022-12-01T19:54:12.859Z,21.52
2022-12-01T19:56:39.197Z,19.40
2022-12-01T19:59:07.739Z,19.30
2022-12-01T20:01:34.131Z,23.02
2022-12-01T20:04:01.284Z,24.70
2022-12-01T20:06:28.813Z,27.38
2022-12-01T20:08:57.158Z,27.77
2022-12-01T20:11:23.942Z,25.77
2022-12-01T20:13:52.047Z,23.77
2022-12-01T20:16:20.015Z,27.95
2022-12-01T20:18:46.704Z,27.08
2022-12-01T20:21:19.283Z,23.25
2022-12-01T20:23:55.266Z,21.88
2022-12-01T20:26:24.937Z,27.40
2022-12-01T20:28:57.626Z,26.40
2022-12-01T20:31:26.295Z,22.35
2022-12-01T20:33:53.588Z,22.83
2022-12-01T20:36:20.369Z,23.80
2022-12-01T20:38:46.792Z,23.88
2022-12-01T20:41:15.922Z,25.02
2022-12-01T20:43:42.573Z,25.45
2022-12-01T20:46:10.104Z,28.40
2022-12-01T20:48:37.642Z,23.48
2022-12-01T20:51:05.005Z,23.98
2022-12-01T20:53:31.326Z,22.95
2022-12-01T20:56:01.608Z,21.08
2022-12-01T20:58:28.508Z,26.40
2022-12-01T21:00:56.544Z,23.92
2022-12-01T21:03:22.905Z,26.58
2022-12-01T21:05:49.202Z,21.95
2022-12-01T21:08:15.536Z,30.55
2022-12-01T21:10:46.782Z,39.03
2022-12-01T21:16:04.096Z,49.83
2022-12-01T21:18:41.106Z,50.33
2022-12-01T21:21:18.561Z,40.42
2022-12-01T21:23:45.154Z,39.38
2022-12-01T21:26:18.997Z,34.53
2022-12-01T21:28:46.234Z,29.73
2022-12-01T21:31:13.915Z,31.95
2022-12-01T21:33:41.041Z,24.02
2022-12-01T21:36:14.708Z,31.95
2022-12-01T21:38:41.977Z,34.30
2022-12-01T21:41:16.058Z,34.50
2022-12-01T21:43:42.405Z,33.30
2022-12-01T21:46:14.013Z,27.50
2022-12-01T21:48:41.623Z,28.02
2022-12-01T21:51:22.770Z,29.40
2022-12-01T21:53:49.695Z,28.13
2022-12-01T21:56:20.084Z,32.95
2022-12-01T21:58:46.610Z,45.57
2022-12-01T22:01:32.381Z,45.17
2022-12-01T22:04:02.300Z,50.08
2022-12-01T22:06:39.638Z,61.07
2022-12-01T22:09:24.829Z,51.88
2022-12-01T22:11:55.904Z,50.42
2022-12-01T22:14:22.164Z,53.15
2022-12-01T22:16:56.224Z,60.40
2022-12-01T22:19:27.666Z,56.65
2022-12-01T22:22:09.435Z,50.20
2022-12-01T22:24:58.153Z,58.53
2022-12-01T22:27:34.162Z,52.17
2022-12-01T22:30:02.508Z,60.80
2022-12-01T22:32:37.226Z,61.55
2022-12-01T22:35:09.874Z,66.38
2022-12-01T22:37:47.111Z,58.60
2022-12-01T22:40:25.837Z,64.82
2022-12-01T22:42:52.211Z,59.03
2022-12-01T22:45:25.539Z,66.88
2022-12-01T22:47:56.104Z,66.90
2022-12-01T22:50:31.895Z,68.40
2022-12-01T22:52:59.469Z,69.70
2022-12-01T22:55:25.886Z,69.97
2022-12-01T22:57:52.430Z,77.75
2022-12-01T23:00:19.318Z,72.90
2022-12-01T23:02:47.689Z,85.28
2022-12-01T23:05:15.221Z,76.80
2022-12-01T23:07:42.720Z,78.57
2022-12-01T23:10:17.153Z,75.97
2022-12-01T23:12:44.787Z,81.10
2022-12-01T23:15:31.080Z,77.35
2022-12-01T23:17:59.385Z,87.90
2022-12-01T23:20:27.764Z,89.88
2022-12-01T23:22:58.577Z,85.68
2022-12-01T23:25:25.395Z,78.72
2022-12-01T23:27:52.816Z,78.55
2022-12-01T23:30:19.809Z,84.10
2022-12-01T23:32:47.986Z,84.70
2022-12-01T23:35:15.688Z,84.50
2022-12-01T23:37:43.362Z,88.07
2022-12-01T23:40:20.483Z,87.10
2022-12-01T23:42:46.959Z,84.68
2022-12-01T23:45:21.387Z,82.40
2022-12-01T23:47:47.972Z,86.25
2022-12-01T23:50:24.906Z,93.18
2022-12-01T23:52:51.467Z,86.53
2022-12-01T23:55:21.334Z,80.32
2022-12-01T23:57:47.989Z,93.22
